sensor_id;sensor_type;location;lat;lon;timestamp;P1;durP1;ratioP1;P2;durP2;ratioP2
70270;SDS011;57680;54.292;18.598;2022-08-30T00:00:18;1.77;;;0.50;;
70270;SDS011;57680;54.292;18.598;2022-08-30T00:03:08;3.40;;;0.70;;
70270;SDS011;57680;54.292;18.598;2022-08-30T00:05:35;3.08;;;0.82;;
70270;SDS011;57680;54.292;18.598;2022-08-30T00:08:01;2.75;;;0.60;;
70270;SDS011;57680;54.292;18.598;2022-08-30T00:10:27;1.90;;;0.80;;
70270;SDS011;57680;54.292;18.598;2022-08-30T00:12:54;2.50;;;0.60;;
70270;SDS011;57680;54.292;18.598;2022-08-30T00:15:20;4.70;;;0.77;;
70270;SDS011;57680;54.292;18.598;2022-08-30T00:17:46;3.28;;;0.60;;
70270;SDS011;57680;54.292;18.598;2022-08-30T00:20:14;4.65;;;0.90;;
70270;SDS011;57680;54.292;18.598;2022-08-30T00:22:44;3.42;;;0.65;;
70270;SDS011;57680;54.292;18.598;2022-08-30T00:25:10;2.50;;;0.70;;
70270;SDS011;57680;54.292;18.598;2022-08-30T00:27:36;2.15;;;0.80;;
70270;SDS011;57680;54.292;18.598;2022-08-30T00:30:03;2.00;;;0.60;;
70270;SDS011;57680;54.292;18.598;2022-08-30T00:32:30;2.33;;;0.50;;
70270;SDS011;57680;54.292;18.598;2022-08-30T00:34:56;5.10;;;0.67;;
70270;SDS011;57680;54.292;18.598;2022-08-30T00:37:21;2.17;;;0.57;;
70270;SDS011;57680;54.292;18.598;2022-08-30T00:39:47;3.03;;;0.60;;
70270;SDS011;57680;54.292;18.598;2022-08-30T00:42:14;2.30;;;0.50;;
70270;SDS011;57680;54.292;18.598;2022-08-30T00:44:41;2.53;;;0.52;;
70270;SDS011;57680;54.292;18.598;2022-08-30T00:47:07;3.33;;;0.70;;
70270;SDS011;57680;54.292;18.598;2022-08-30T00:49:33;0.93;;;0.50;;
70270;SDS011;57680;54.292;18.598;2022-08-30T00:52:01;3.47;;;0.60;;
70270;SDS011;57680;54.292;18.598;2022-08-30T00:54:28;2.28;;;0.50;;
70270;SDS011;57680;54.292;18.598;2022-08-30T00:56:56;3.17;;;0.50;;
70270;SDS011;57680;54.292;18.598;2022-08-30T00:59:22;2.53;;;0.40;;
70270;SDS011;57680;54.292;18.598;2022-08-30T01:01:49;1.63;;;0.47;;
70270;SDS011;57680;54.292;18.598;2022-08-30T01:04:15;2.53;;;0.50;;
70270;SDS011;57680;54.292;18.598;2022-08-30T01:06:44;2.67;;;0.68;;
70270;SDS011;57680;54.292;18.598;2022-08-30T01:09:10;1.92;;;0.50;;
70270;SDS011;57680;54.292;18.598;2022-08-30T01:11:36;1.75;;;0.40;;
70270;SDS011;57680;54.292;18.598;2022-08-30T01:14:03;1.27;;;0.40;;
70270;SDS011;57680;54.292;18.598;2022-08-30T01:16:31;2.55;;;0.40;;
70270;SDS011;57680;54.292;18.598;2022-08-30T01:18:58;2.33;;;0.50;;
70270;SDS011;57680;54.292;18.598;2022-08-30T01:24:09;1.85;;;0.40;;
70270;SDS011;57680;54.292;18.598;2022-08-30T01:26:34;2.20;;;0.30;;
70270;SDS011;57680;54.292;18.598;2022-08-30T01:29:07;1.17;;;0.50;;
70270;SDS011;57680;54.292;18.598;2022-08-30T01:31:37;2.92;;;0.40;;
70270;SDS011;57680;54.292;18.598;2022-08-30T01:34:03;1.40;;;0.40;;
70270;SDS011;57680;54.292;18.598;2022-08-30T01:36:31;2.78;;;0.60;;
70270;SDS011;57680;54.292;18.598;2022-08-30T01:38:57;1.75;;;0.50;;
70270;SDS011;57680;54.292;18.598;2022-08-30T01:41:23;3.40;;;0.60;;
70270;SDS011;57680;54.292;18.598;2022-08-30T01:43:58;1.90;;;0.50;;
70270;SDS011;57680;54.292;18.598;2022-08-30T01:46:27;1.38;;;0.45;;
70270;SDS011;57680;54.292;18.598;2022-08-30T01:48:56;2.25;;;0.40;;
70270;SDS011;57680;54.292;18.598;2022-08-30T01:51:23;3.10;;;0.70;;
70270;SDS011;57680;54.292;18.598;2022-08-30T01:53:51;2.60;;;0.50;;
70270;SDS011;57680;54.292;18.598;2022-08-30T01:56:16;2.22;;;0.50;;
70270;SDS011;57680;54.292;18.598;2022-08-30T01:58:42;1.90;;;0.70;;
70270;SDS011;57680;54.292;18.598;2022-08-30T02:01:10;2.10;;;0.60;;
70270;SDS011;57680;54.292;18.598;2022-08-30T02:03:38;2.75;;;0.60;;
70270;SDS011;57680;54.292;18.598;2022-08-30T02:06:05;3.03;;;1.00;;
70270;SDS011;57680;54.292;18.598;2022-08-30T02:08:34;2.85;;;0.63;;
70270;SDS011;57680;54.292;18.598;2022-08-30T02:11:00;1.88;;;0.50;;
70270;SDS011;57680;54.292;18.598;2022-08-30T02:13:26;3.70;;;0.63;;
70270;SDS011;57680;54.292;18.598;2022-08-30T02:15:51;3.27;;;0.67;;
70270;SDS011;57680;54.292;18.598;2022-08-30T02:18:18;2.17;;;0.70;;
70270;SDS011;57680;54.292;18.598;2022-08-30T02:20:45;3.15;;;0.70;;
70270;SDS011;57680;54.292;18.598;2022-08-30T02:23:10;2.30;;;0.60;;
70270;SDS011;57680;54.292;18.598;2022-08-30T02:25:36;2.92;;;0.60;;
70270;SDS011;57680;54.292;18.598;2022-08-30T02:28:02;1.40;;;0.50;;
70270;SDS011;57680;54.292;18.598;2022-08-30T02:30:28;3.00;;;0.60;;
70270;SDS011;57680;54.292;18.598;2022-08-30T02:32:54;2.42;;;0.52;;
70270;SDS011;57680;54.292;18.598;2022-08-30T02:35:20;2.77;;;0.67;;
70270;SDS011;57680;54.292;18.598;2022-08-30T02:37:45;2.80;;;0.70;;
70270;SDS011;57680;54.292;18.598;2022-08-30T02:40:11;3.90;;;0.70;;
70270;SDS011;57680;54.292;18.598;2022-08-30T02:42:37;5.17;;;1.00;;
70270;SDS011;57680;54.292;18.598;2022-08-30T02:45:02;3.10;;;0.75;;
70270;SDS011;57680;54.292;18.598;2022-08-30T02:47:28;2.88;;;0.70;;
70270;SDS011;57680;54.292;18.598;2022-08-30T02:49:54;2.47;;;0.80;;
70270;SDS011;57680;54.292;18.598;2022-08-30T02:52:20;1.90;;;0.70;;
70270;SDS011;57680;54.292;18.598;2022-08-30T02:54:45;3.03;;;0.73;;
70270;SDS011;57680;54.292;18.598;2022-08-30T02:57:11;3.87;;;0.93;;
70270;SDS011;57680;54.292;18.598;2022-08-30T02:59:37;2.72;;;0.88;;
70270;SDS011;57680;54.292;18.598;2022-08-30T03:02:08;5.07;;;0.68;;
70270;SDS011;57680;54.292;18.598;2022-08-30T03:04:35;2.22;;;0.90;;
70270;SDS011;57680;54.292;18.598;2022-08-30T03:07:00;3.20;;;0.87;;
70270;SDS011;57680;54.292;18.598;2022-08-30T03:09:26;3.10;;;1.00;;
70270;SDS011;57680;54.292;18.598;2022-08-30T03:11:51;2.93;;;0.80;;
70270;SDS011;57680;54.292;18.598;2022-08-30T03:14:17;2.65;;;0.80;;
70270;SDS011;57680;54.292;18.598;2022-08-30T03:16:43;2.93;;;0.60;;
70270;SDS011;57680;54.292;18.598;2022-08-30T03:19:08;3.17;;;0.80;;
70270;SDS011;57680;54.292;18.598;2022-08-30T03:21:35;2.03;;;0.63;;
70270;SDS011;57680;54.292;18.598;2022-08-30T03:24:01;3.60;;;0.90;;
70270;SDS011;57680;54.292;18.598;2022-08-30T03:26:27;1.88;;;0.57;;
70270;SDS011;57680;54.292;18.598;2022-08-30T03:28:52;2.53;;;0.50;;
70270;SDS011;57680;54.292;18.598;2022-08-30T03:31:18;2.40;;;0.55;;
70270;SDS011;57680;54.292;18.598;2022-08-30T03:33:44;1.80;;;0.40;;
70270;SDS011;57680;54.292;18.598;2022-08-30T03:36:09;2.95;;;0.57;;
70270;SDS011;57680;54.292;18.598;2022-08-30T03:38:36;2.47;;;0.57;;
70270;SDS011;57680;54.292;18.598;2022-08-30T03:41:02;1.20;;;0.40;;
70270;SDS011;57680;54.292;18.598;2022-08-30T03:43:30;2.97;;;0.55;;
70270;SDS011;57680;54.292;18.598;2022-08-30T03:45:58;1.40;;;0.40;;
70270;SDS011;57680;54.292;18.598;2022-08-30T03:48:25;1.50;;;0.30;;
70270;SDS011;57680;54.292;18.598;2022-08-30T03:50:51;3.40;;;0.40;;
70270;SDS011;57680;54.292;18.598;2022-08-30T03:53:17;2.10;;;0.65;;
70270;SDS011;57680;54.292;18.598;2022-08-30T03:55:43;2.55;;;0.70;;
70270;SDS011;57680;54.292;18.598;2022-08-30T03:58:08;1.47;;;0.60;;
70270;SDS011;57680;54.292;18.598;2022-08-30T04:00:34;3.47;;;0.65;;
70270;SDS011;57680;54.292;18.598;2022-08-30T04:03:00;2.90;;;0.70;;
70270;SDS011;57680;54.292;18.598;2022-08-30T04:05:25;3.30;;;0.60;;
70270;SDS011;57680;54.292;18.598;2022-08-30T04:07:51;3.33;;;0.73;;
70270;SDS011;57680;54.292;18.598;2022-08-30T04:10:17;1.88;;;0.90;;
70270;SDS011;57680;54.292;18.598;2022-08-30T04:12:45;2.43;;;0.80;;
70270;SDS011;57680;54.292;18.598;2022-08-30T04:15:14;1.73;;;0.70;;
70270;SDS011;57680;54.292;18.598;2022-08-30T04:17:41;2.33;;;0.60;;
70270;SDS011;57680;54.292;18.598;2022-08-30T04:20:08;2.90;;;0.60;;
70270;SDS011;57680;54.292;18.598;2022-08-30T04:22:34;1.80;;;0.60;;
70270;SDS011;57680;54.292;18.598;2022-08-30T04:25:00;1.60;;;0.60;;
70270;SDS011;57680;54.292;18.598;2022-08-30T04:27:27;3.75;;;0.60;;
70270;SDS011;57680;54.292;18.598;2022-08-30T04:29:52;2.95;;;0.70;;
70270;SDS011;57680;54.292;18.598;2022-08-30T04:32:20;2.93;;;1.17;;
70270;SDS011;57680;54.292;18.598;2022-08-30T04:34:45;1.95;;;0.60;;
70270;SDS011;57680;54.292;18.598;2022-08-30T04:37:11;4.07;;;0.70;;
70270;SDS011;57680;54.292;18.598;2022-08-30T04:39:37;2.05;;;0.52;;
70270;SDS011;57680;54.292;18.598;2022-08-30T04:42:03;2.38;;;0.80;;
70270;SDS011;57680;54.292;18.598;2022-08-30T04:44:30;1.90;;;0.70;;
70270;SDS011;57680;54.292;18.598;2022-08-30T04:46:56;2.03;;;0.63;;
70270;SDS011;57680;54.292;18.598;2022-08-30T04:49:21;1.53;;;0.60;;
70270;SDS011;57680;54.292;18.598;2022-08-30T04:51:47;2.08;;;0.50;;
70270;SDS011;57680;54.292;18.598;2022-08-30T04:54:13;2.30;;;0.60;;
70270;SDS011;57680;54.292;18.598;2022-08-30T04:56:38;1.52;;;0.75;;
70270;SDS011;57680;54.292;18.598;2022-08-30T04:59:04;2.73;;;0.70;;
70270;SDS011;57680;54.292;18.598;2022-08-30T05:01:30;2.47;;;0.57;;
70270;SDS011;57680;54.292;18.598;2022-08-30T05:03:56;2.28;;;0.60;;
70270;SDS011;57680;54.292;18.598;2022-08-30T05:06:24;3.03;;;0.60;;
70270;SDS011;57680;54.292;18.598;2022-08-30T05:08:51;2.75;;;0.70;;
70270;SDS011;57680;54.292;18.598;2022-08-30T05:11:18;1.85;;;0.60;;
70270;SDS011;57680;54.292;18.598;2022-08-30T05:13:44;3.13;;;0.70;;
70270;SDS011;57680;54.292;18.598;2022-08-30T05:16:11;4.50;;;0.70;;
70270;SDS011;57680;54.292;18.598;2022-08-30T05:18:41;3.60;;;0.70;;
70270;SDS011;57680;54.292;18.598;2022-08-30T05:21:16;3.70;;;0.70;;
70270;SDS011;57680;54.292;18.598;2022-08-30T05:23:44;4.43;;;0.85;;
70270;SDS011;57680;54.292;18.598;2022-08-30T05:26:14;3.43;;;0.80;;
70270;SDS011;57680;54.292;18.598;2022-08-30T05:28:45;3.00;;;0.75;;
70270;SDS011;57680;54.292;18.598;2022-08-30T05:31:17;2.78;;;0.88;;
70270;SDS011;57680;54.292;18.598;2022-08-30T05:33:44;2.17;;;0.70;;
70270;SDS011;57680;54.292;18.598;2022-08-30T05:36:11;2.80;;;0.80;;
70270;SDS011;57680;54.292;18.598;2022-08-30T05:38:37;2.97;;;0.70;;
70270;SDS011;57680;54.292;18.598;2022-08-30T05:41:03;2.58;;;0.77;;
70270;SDS011;57680;54.292;18.598;2022-08-30T05:43:30;2.35;;;0.63;;
70270;SDS011;57680;54.292;18.598;2022-08-30T05:45:59;2.42;;;0.70;;
70270;SDS011;57680;54.292;18.598;2022-08-30T05:48:29;2.78;;;0.80;;
70270;SDS011;57680;54.292;18.598;2022-08-30T05:53:41;1.55;;;0.57;;
70270;SDS011;57680;54.292;18.598;2022-08-30T05:56:09;3.00;;;0.60;;
70270;SDS011;57680;54.292;18.598;2022-08-30T05:58:36;4.45;;;0.75;;
70270;SDS011;57680;54.292;18.598;2022-08-30T06:01:03;4.07;;;0.90;;
70270;SDS011;57680;54.292;18.598;2022-08-30T06:03:29;2.67;;;0.83;;
70270;SDS011;57680;54.292;18.598;2022-08-30T06:05:56;3.10;;;0.90;;
70270;SDS011;57680;54.292;18.598;2022-08-30T06:08:23;5.53;;;0.80;;
70270;SDS011;57680;54.292;18.598;2022-08-30T06:10:48;2.77;;;1.00;;
70270;SDS011;57680;54.292;18.598;2022-08-30T06:13:14;2.88;;;1.00;;
70270;SDS011;57680;54.292;18.598;2022-08-30T06:15:40;4.45;;;0.80;;
70270;SDS011;57680;54.292;18.598;2022-08-30T06:18:10;4.57;;;0.80;;
70270;SDS011;57680;54.292;18.598;2022-08-30T06:20:41;4.15;;;1.00;;
70270;SDS011;57680;54.292;18.598;2022-08-30T06:23:07;3.22;;;0.93;;
70270;SDS011;57680;54.292;18.598;2022-08-30T06:25:34;2.53;;;0.82;;
70270;SDS011;57680;54.292;18.598;2022-08-30T06:28:01;2.75;;;0.70;;
70270;SDS011;57680;54.292;18.598;2022-08-30T06:30:28;5.00;;;0.73;;
70270;SDS011;57680;54.292;18.598;2022-08-30T06:32:54;2.28;;;0.60;;
70270;SDS011;57680;54.292;18.598;2022-08-30T06:35:19;2.80;;;0.87;;
70270;SDS011;57680;54.292;18.598;2022-08-30T06:37:45;1.85;;;0.70;;
70270;SDS011;57680;54.292;18.598;2022-08-30T06:40:11;4.03;;;1.00;;
70270;SDS011;57680;54.292;18.598;2022-08-30T06:42:38;2.97;;;0.80;;
70270;SDS011;57680;54.292;18.598;2022-08-30T06:45:04;3.23;;;1.10;;
70270;SDS011;57680;54.292;18.598;2022-08-30T06:47:30;3.65;;;0.70;;
70270;SDS011;57680;54.292;18.598;2022-08-30T06:49:56;2.65;;;0.90;;
70270;SDS011;57680;54.292;18.598;2022-08-30T06:52:22;4.87;;;0.70;;
70270;SDS011;57680;54.292;18.598;2022-08-30T06:54:48;2.78;;;0.70;;
70270;SDS011;57680;54.292;18.598;2022-08-30T06:57:14;3.72;;;0.80;;
70270;SDS011;57680;54.292;18.598;2022-08-30T06:59:40;4.90;;;0.90;;
70270;SDS011;57680;54.292;18.598;2022-08-30T07:02:05;3.42;;;0.90;;
70270;SDS011;57680;54.292;18.598;2022-08-30T07:04:31;4.70;;;0.95;;
70270;SDS011;57680;54.292;18.598;2022-08-30T07:06:57;5.43;;;0.93;;
70270;SDS011;57680;54.292;18.598;2022-08-30T07:09:23;3.35;;;1.00;;
70270;SDS011;57680;54.292;18.598;2022-08-30T07:11:49;3.17;;;1.00;;
70270;SDS011;57680;54.292;18.598;2022-08-30T07:14:18;1.73;;;0.63;;
70270;SDS011;57680;54.292;18.598;2022-08-30T07:16:44;4.70;;;0.65;;
70270;SDS011;57680;54.292;18.598;2022-08-30T07:19:10;3.28;;;0.80;;
70270;SDS011;57680;54.292;18.598;2022-08-30T07:21:37;1.77;;;0.57;;
70270;SDS011;57680;54.292;18.598;2022-08-30T07:24:07;2.97;;;0.90;;
70270;SDS011;57680;54.292;18.598;2022-08-30T07:26:44;4.68;;;0.93;;
70270;SDS011;57680;54.292;18.598;2022-08-30T07:29:13;2.33;;;0.80;;
70270;SDS011;57680;54.292;18.598;2022-08-30T07:31:39;2.43;;;1.20;;
70270;SDS011;57680;54.292;18.598;2022-08-30T07:34:05;3.65;;;0.60;;
70270;SDS011;57680;54.292;18.598;2022-08-30T07:36:31;3.17;;;0.70;;
70270;SDS011;57680;54.292;18.598;2022-08-30T07:38:57;2.20;;;0.70;;
70270;SDS011;57680;54.292;18.598;2022-08-30T07:41:33;3.40;;;1.00;;
70270;SDS011;57680;54.292;18.598;2022-08-30T07:44:02;2.60;;;0.70;;
70270;SDS011;57680;54.292;18.598;2022-08-30T07:46:30;3.03;;;0.70;;
70270;SDS011;57680;54.292;18.598;2022-08-30T07:48:57;1.67;;;0.60;;
70270;SDS011;57680;54.292;18.598;2022-08-30T07:51:25;2.15;;;0.77;;
70270;SDS011;57680;54.292;18.598;2022-08-30T07:53:52;3.90;;;0.70;;
70270;SDS011;57680;54.292;18.598;2022-08-30T07:56:19;2.00;;;0.70;;
70270;SDS011;57680;54.292;18.598;2022-08-30T07:58:45;3.83;;;0.90;;
70270;SDS011;57680;54.292;18.598;2022-08-30T08:01:11;3.15;;;0.68;;
70270;SDS011;57680;54.292;18.598;2022-08-30T08:03:37;2.70;;;0.60;;
70270;SDS011;57680;54.292;18.598;2022-08-30T08:06:05;2.38;;;0.50;;
70270;SDS011;57680;54.292;18.598;2022-08-30T08:08:32;2.35;;;0.60;;
70270;SDS011;57680;54.292;18.598;2022-08-30T08:11:05;3.50;;;0.80;;
70270;SDS011;57680;54.292;18.598;2022-08-30T08:13:34;3.25;;;0.80;;
70270;SDS011;57680;54.292;18.598;2022-08-30T08:16:00;2.38;;;0.70;;
70270;SDS011;57680;54.292;18.598;2022-08-30T08:18:26;5.00;;;0.68;;
70270;SDS011;57680;54.292;18.598;2022-08-30T08:20:51;2.03;;;0.60;;
70270;SDS011;57680;54.292;18.598;2022-08-30T08:23:17;2.77;;;0.70;;
70270;SDS011;57680;54.292;18.598;2022-08-30T08:25:42;3.40;;;1.00;;
70270;SDS011;57680;54.292;18.598;2022-08-30T08:28:08;2.93;;;0.90;;
70270;SDS011;57680;54.292;18.598;2022-08-30T08:30:34;3.43;;;0.90;;
70270;SDS011;57680;54.292;18.598;2022-08-30T08:33:01;3.13;;;0.70;;
70270;SDS011;57680;54.292;18.598;2022-08-30T08:35:27;2.70;;;0.80;;
70270;SDS011;57680;54.292;18.598;2022-08-30T08:37:53;2.15;;;0.60;;
70270;SDS011;57680;54.292;18.598;2022-08-30T08:40:19;2.73;;;0.90;;
70270;SDS011;57680;54.292;18.598;2022-08-30T08:43:31;2.40;;;0.70;;
70270;SDS011;57680;54.292;18.598;2022-08-30T08:48:40;2.83;;;0.80;;
70270;SDS011;57680;54.292;18.598;2022-08-30T08:51:10;3.58;;;0.90;;
70270;SDS011;57680;54.292;18.598;2022-08-30T08:54:20;3.45;;;0.95;;
70270;SDS011;57680;54.292;18.598;2022-08-30T08:56:52;3.33;;;1.13;;
70270;SDS011;57680;54.292;18.598;2022-08-30T08:59:18;2.90;;;1.00;;
70270;SDS011;57680;54.292;18.598;2022-08-30T09:01:44;2.67;;;1.00;;
70270;SDS011;57680;54.292;18.598;2022-08-30T09:04:12;3.90;;;1.23;;
70270;SDS011;57680;54.292;18.598;2022-08-30T09:07:01;2.50;;;1.00;;
70270;SDS011;57680;54.292;18.598;2022-08-30T09:09:36;3.67;;;1.10;;
70270;SDS011;57680;54.292;18.598;2022-08-30T09:12:05;2.67;;;1.10;;
70270;SDS011;57680;54.292;18.598;2022-08-30T09:14:34;3.33;;;0.95;;
70270;SDS011;57680;54.292;18.598;2022-08-30T09:17:06;2.72;;;0.90;;
70270;SDS011;57680;54.292;18.598;2022-08-30T09:19:38;3.55;;;1.10;;
70270;SDS011;57680;54.292;18.598;2022-08-30T09:22:15;3.57;;;1.27;;
70270;SDS011;57680;54.292;18.598;2022-08-30T09:24:48;4.20;;;1.48;;
70270;SDS011;57680;54.292;18.598;2022-08-30T09:27:35;4.25;;;1.10;;
70270;SDS011;57680;54.292;18.598;2022-08-30T09:30:19;3.88;;;1.10;;
70270;SDS011;57680;54.292;18.598;2022-08-30T09:32:52;3.25;;;1.27;;
70270;SDS011;57680;54.292;18.598;2022-08-30T09:35:23;3.27;;;1.10;;
70270;SDS011;57680;54.292;18.598;2022-08-30T09:38:08;2.85;;;1.10;;
70270;SDS011;57680;54.292;18.598;2022-08-30T09:40:58;4.07;;;1.42;;
70270;SDS011;57680;54.292;18.598;2022-08-30T09:43:44;4.72;;;1.40;;
70270;SDS011;57680;54.292;18.598;2022-08-30T09:46:43;3.63;;;1.10;;
70270;SDS011;57680;54.292;18.598;2022-08-30T10:00:25;4.57;;;1.50;;
70270;SDS011;57680;54.292;18.598;2022-08-30T10:05:30;3.90;;;1.20;;
70270;SDS011;57680;54.292;18.598;2022-08-30T10:08:30;2.13;;;1.02;;
70270;SDS011;57680;54.292;18.598;2022-08-30T10:11:22;4.80;;;1.17;;
70270;SDS011;57680;54.292;18.598;2022-08-30T10:14:37;4.13;;;1.50;;
70270;SDS011;57680;54.292;18.598;2022-08-30T10:22:58;3.58;;;1.10;;
70270;SDS011;57680;54.292;18.598;2022-08-30T10:28:08;4.93;;;1.20;;
70270;SDS011;57680;54.292;18.598;2022-08-30T10:30:39;3.40;;;0.97;;
70270;SDS011;57680;54.292;18.598;2022-08-30T10:33:13;2.03;;;0.90;;
70270;SDS011;57680;54.292;18.598;2022-08-30T10:36:05;2.92;;;1.00;;
70270;SDS011;57680;54.292;18.598;2022-08-30T10:38:36;2.95;;;0.95;;
70270;SDS011;57680;54.292;18.598;2022-08-30T10:46:31;2.65;;;0.93;;
70270;SDS011;57680;54.292;18.598;2022-08-30T10:49:00;3.03;;;1.15;;
70270;SDS011;57680;54.292;18.598;2022-08-30T10:51:43;4.88;;;1.10;;
70270;SDS011;57680;54.292;18.598;2022-08-30T10:56:58;4.70;;;1.00;;
70270;SDS011;57680;54.292;18.598;2022-08-30T10:59:24;3.28;;;0.90;;
70270;SDS011;57680;54.292;18.598;2022-08-30T11:04:54;4.22;;;1.10;;
70270;SDS011;57680;54.292;18.598;2022-08-30T11:13:30;5.28;;;1.10;;
70270;SDS011;57680;54.292;18.598;2022-08-30T11:16:06;4.60;;;1.00;;
70270;SDS011;57680;54.292;18.598;2022-08-30T11:18:46;3.80;;;1.05;;
70270;SDS011;57680;54.292;18.598;2022-08-30T11:23:58;3.65;;;0.93;;
70270;SDS011;57680;54.292;18.598;2022-08-30T11:29:32;2.90;;;0.88;;
70270;SDS011;57680;54.292;18.598;2022-08-30T11:40:02;3.55;;;1.08;;
70270;SDS011;57680;54.292;18.598;2022-08-30T11:42:32;4.22;;;0.80;;
70270;SDS011;57680;54.292;18.598;2022-08-30T11:48:03;2.37;;;0.97;;
70270;SDS011;57680;54.292;18.598;2022-08-30T11:58:39;2.38;;;0.75;;
70270;SDS011;57680;54.292;18.598;2022-08-30T12:01:16;3.38;;;1.00;;
70270;SDS011;57680;54.292;18.598;2022-08-30T12:03:42;2.90;;;1.10;;
70270;SDS011;57680;54.292;18.598;2022-08-30T12:06:09;4.18;;;0.82;;
70270;SDS011;57680;54.292;18.598;2022-08-30T12:08:40;2.75;;;0.68;;
70270;SDS011;57680;54.292;18.598;2022-08-30T12:16:08;3.87;;;0.80;;
70270;SDS011;57680;54.292;18.598;2022-08-30T12:18:40;6.03;;;1.10;;
70270;SDS011;57680;54.292;18.598;2022-08-30T12:28:50;2.67;;;0.70;;
70270;SDS011;57680;54.292;18.598;2022-08-30T12:31:21;3.13;;;0.73;;
70270;SDS011;57680;54.292;18.598;2022-08-30T12:33:52;2.72;;;0.70;;
70270;SDS011;57680;54.292;18.598;2022-08-30T12:36:36;3.10;;;0.90;;
70270;SDS011;57680;54.292;18.598;2022-08-30T12:39:16;3.42;;;0.90;;
70270;SDS011;57680;54.292;18.598;2022-08-30T12:41:45;4.27;;;0.90;;
70270;SDS011;57680;54.292;18.598;2022-08-30T12:44:15;2.88;;;0.85;;
70270;SDS011;57680;54.292;18.598;2022-08-30T12:46:44;5.05;;;1.10;;
70270;SDS011;57680;54.292;18.598;2022-08-30T12:49:14;3.27;;;0.87;;
70270;SDS011;57680;54.292;18.598;2022-08-30T12:51:42;3.50;;;0.70;;
70270;SDS011;57680;54.292;18.598;2022-08-30T12:54:18;3.70;;;1.08;;
70270;SDS011;57680;54.292;18.598;2022-08-30T12:56:57;4.70;;;0.93;;
70270;SDS011;57680;54.292;18.598;2022-08-30T13:02:12;4.17;;;0.90;;
70270;SDS011;57680;54.292;18.598;2022-08-30T13:04:40;3.95;;;0.90;;
70270;SDS011;57680;54.292;18.598;2022-08-30T13:07:07;3.95;;;0.80;;
70270;SDS011;57680;54.292;18.598;2022-08-30T13:09:34;2.40;;;0.90;;
70270;SDS011;57680;54.292;18.598;2022-08-30T13:12:06;4.25;;;0.80;;
70270;SDS011;57680;54.292;18.598;2022-08-30T13:14:35;3.65;;;0.82;;
70270;SDS011;57680;54.292;18.598;2022-08-30T13:17:26;4.35;;;0.82;;
70270;SDS011;57680;54.292;18.598;2022-08-30T13:22:37;2.30;;;0.70;;
70270;SDS011;57680;54.292;18.598;2022-08-30T13:25:04;3.53;;;0.63;;
70270;SDS011;57680;54.292;18.598;2022-08-30T13:27:32;4.03;;;0.80;;
70270;SDS011;57680;54.292;18.598;2022-08-30T13:30:11;4.43;;;1.02;;
70270;SDS011;57680;54.292;18.598;2022-08-30T13:32:40;3.83;;;1.10;;
70270;SDS011;57680;54.292;18.598;2022-08-30T13:35:06;2.57;;;0.87;;
70270;SDS011;57680;54.292;18.598;2022-08-30T13:37:32;4.53;;;0.90;;
70270;SDS011;57680;54.292;18.598;2022-08-30T13:39:58;2.20;;;0.80;;
70270;SDS011;57680;54.292;18.598;2022-08-30T13:42:23;3.20;;;0.90;;
70270;SDS011;57680;54.292;18.598;2022-08-30T13:44:49;3.40;;;0.95;;
70270;SDS011;57680;54.292;18.598;2022-08-30T13:47:15;5.30;;;1.00;;
70270;SDS011;57680;54.292;18.598;2022-08-30T13:49:42;2.60;;;0.70;;
70270;SDS011;57680;54.292;18.598;2022-08-30T13:52:09;5.32;;;0.70;;
70270;SDS011;57680;54.292;18.598;2022-08-30T13:54:36;2.70;;;0.70;;
70270;SDS011;57680;54.292;18.598;2022-08-30T13:57:02;2.38;;;0.70;;
70270;SDS011;57680;54.292;18.598;2022-08-30T13:59:29;2.25;;;0.75;;
70270;SDS011;57680;54.292;18.598;2022-08-30T14:01:58;2.55;;;0.70;;
70270;SDS011;57680;54.292;18.598;2022-08-30T14:04:26;3.30;;;1.10;;
70270;SDS011;57680;54.292;18.598;2022-08-30T14:06:52;3.97;;;0.90;;
70270;SDS011;57680;54.292;18.598;2022-08-30T14:09:17;4.43;;;1.00;;
70270;SDS011;57680;54.292;18.598;2022-08-30T14:11:43;3.00;;;0.93;;
70270;SDS011;57680;54.292;18.598;2022-08-30T14:14:08;4.23;;;1.13;;
70270;SDS011;57680;54.292;18.598;2022-08-30T14:16:36;3.35;;;0.98;;
70270;SDS011;57680;54.292;18.598;2022-08-30T14:19:03;3.53;;;1.07;;
70270;SDS011;57680;54.292;18.598;2022-08-30T14:21:29;3.40;;;0.90;;
70270;SDS011;57680;54.292;18.598;2022-08-30T14:23:55;3.75;;;0.85;;
70270;SDS011;57680;54.292;18.598;2022-08-30T14:26:23;2.43;;;0.90;;
70270;SDS011;57680;54.292;18.598;2022-08-30T14:28:52;4.03;;;1.00;;
70270;SDS011;57680;54.292;18.598;2022-08-30T14:31:18;3.90;;;0.80;;
70270;SDS011;57680;54.292;18.598;2022-08-30T14:33:43;4.07;;;1.10;;
70270;SDS011;57680;54.292;18.598;2022-08-30T14:36:09;3.65;;;1.00;;
70270;SDS011;57680;54.292;18.598;2022-08-30T14:38:36;2.60;;;0.70;;
70270;SDS011;57680;54.292;18.598;2022-08-30T14:41:03;5.22;;;0.90;;
70270;SDS011;57680;54.292;18.598;2022-08-30T14:43:29;3.85;;;1.00;;
70270;SDS011;57680;54.292;18.598;2022-08-30T14:45:56;3.03;;;0.80;;
70270;SDS011;57680;54.292;18.598;2022-08-30T14:48:22;2.17;;;0.90;;
70270;SDS011;57680;54.292;18.598;2022-08-30T14:50:48;3.35;;;0.80;;
70270;SDS011;57680;54.292;18.598;2022-08-30T14:53:14;3.87;;;0.70;;
70270;SDS011;57680;54.292;18.598;2022-08-30T14:55:39;4.10;;;0.80;;
70270;SDS011;57680;54.292;18.598;2022-08-30T14:58:05;3.03;;;0.77;;
70270;SDS011;57680;54.292;18.598;2022-08-30T15:00:31;4.27;;;0.67;;
70270;SDS011;57680;54.292;18.598;2022-08-30T15:02:56;4.75;;;0.88;;
70270;SDS011;57680;54.292;18.598;2022-08-30T15:05:22;2.53;;;0.53;;
70270;SDS011;57680;54.292;18.598;2022-08-30T15:07:48;5.47;;;0.80;;
70270;SDS011;57680;54.292;18.598;2022-08-30T15:10:17;2.88;;;0.73;;
70270;SDS011;57680;54.292;18.598;2022-08-30T15:12:48;3.08;;;0.80;;
70270;SDS011;57680;54.292;18.598;2022-08-30T15:15:16;3.35;;;0.90;;
70270;SDS011;57680;54.292;18.598;2022-08-30T15:17:45;4.13;;;1.00;;
70270;SDS011;57680;54.292;18.598;2022-08-30T15:20:11;1.77;;;0.50;;
70270;SDS011;57680;54.292;18.598;2022-08-30T15:22:38;2.72;;;0.73;;
70270;SDS011;57680;54.292;18.598;2022-08-30T15:25:04;1.80;;;0.60;;
70270;SDS011;57680;54.292;18.598;2022-08-30T15:27:30;4.05;;;0.73;;
70270;SDS011;57680;54.292;18.598;2022-08-30T15:29:55;3.20;;;0.63;;
70270;SDS011;57680;54.292;18.598;2022-08-30T15:32:21;3.30;;;0.80;;
70270;SDS011;57680;54.292;18.598;2022-08-30T15:34:47;3.47;;;0.80;;
70270;SDS011;57680;54.292;18.598;2022-08-30T15:37:12;2.13;;;0.70;;
70270;SDS011;57680;54.292;18.598;2022-08-30T15:39:46;2.72;;;0.80;;
70270;SDS011;57680;54.292;18.598;2022-08-30T15:42:12;2.78;;;0.80;;
70270;SDS011;57680;54.292;18.598;2022-08-30T15:44:37;2.63;;;0.80;;
70270;SDS011;57680;54.292;18.598;2022-08-30T15:47:03;3.13;;;0.93;;
70270;SDS011;57680;54.292;18.598;2022-08-30T15:49:28;3.20;;;0.80;;
70270;SDS011;57680;54.292;18.598;2022-08-30T15:51:54;3.60;;;0.60;;
70270;SDS011;57680;54.292;18.598;2022-08-30T15:54:25;4.28;;;0.80;;
70270;SDS011;57680;54.292;18.598;2022-08-30T15:56:50;2.37;;;0.80;;
70270;SDS011;57680;54.292;18.598;2022-08-30T15:59:22;2.72;;;0.70;;
70270;SDS011;57680;54.292;18.598;2022-08-30T16:01:49;3.45;;;0.80;;
70270;SDS011;57680;54.292;18.598;2022-08-30T16:04:14;1.60;;;0.60;;
70270;SDS011;57680;54.292;18.598;2022-08-30T16:06:42;3.55;;;0.90;;
70270;SDS011;57680;54.292;18.598;2022-08-30T16:09:08;3.00;;;0.77;;
70270;SDS011;57680;54.292;18.598;2022-08-30T16:11:34;2.85;;;0.90;;